Auriesville, New York
Current Conditions -  °F | °C
As of 11:15 AM on Sunday 25 Jan 2015 (Local Time) from KNY0 Reporting Station
Clear Clear  
Wind Chill:   Ceiling: Unl
Heat Index: 19°   Visibility: 10mi
Dew Point:   Wind: 16mph
Humidity: 48%   Direction: 280°W
Pressure: 29.75"   Gusts: 23mph
Location:  42.93°N, 74.32°W
Report Text: KNY0 251615Z AUTO 28014G20KT 10SM CLR M07/M16 A2975 RMK AO2 T10711165
Loading
Personal Weather Stations






























Interactive Weather Map New forecast layout! Learn more

10-Day Weather Forecast

Advertisements
Track Severe Weather on mobile